Time;durP1;ratioP1;P1;durP2;ratioP2;P2;SDS_P1;SDS_P2;PMS_P1;PMS_P2;Temp;Humidity;BMP_temperature;BMP_pressure;BME280_temperature;BME280_humidity;BME280_pressure;Samples;Min_cycle;Max_cycle;Signal;HPM_P1;HPM_P2
2024/01/15 00:02:06;;;;;;;9.80;5.32;;;0.90;89.00;;;;;;5103543;28;20023;-73
2024/01/15 00:04:36;;;;;;;10.23;5.43;;;0.90;89.10;;;;;;5112116;28;20031;-72
2024/01/15 00:07:01;;;;;;;11.25;5.90;;;0.90;89.20;;;;;;5114860;28;20034;-74
2024/01/15 00:09:27;;;;;;;13.68;5.95;;;0.90;89.20;;;;;;5115707;28;20418;-73
2024/01/15 00:11:53;;;;;;;8.38;4.95;;;0.90;89.00;;;;;;5115328;28;20155;-73
2024/01/15 00:14:20;;;;;;;10.23;5.32;;;0.90;88.90;;;;;;5115554;28;20034;-72
2024/01/15 00:16:46;;;;;;;11.45;6.13;;;0.90;88.90;;;;;;5115692;28;20082;-72
2024/01/15 00:19:11;;;;;;;10.32;5.80;;;0.90;88.80;;;;;;5115024;28;20405;-73
2024/01/15 00:21:37;;;;;;;9.25;5.35;;;0.90;88.90;;;;;;5115763;28;20418;-73
2024/01/15 00:24:03;;;;;;;11.23;5.88;;;0.90;88.80;;;;;;5113898;28;20464;-74
2024/01/15 00:26:28;;;;;;;10.43;5.97;;;0.90;88.90;;;;;;5115206;28;20039;-72
2024/01/15 00:28:54;;;;;;;11.98;5.95;;;0.90;88.70;;;;;;5115210;28;20027;-73
2024/01/15 00:31:19;;;;;;;10.95;5.80;;;0.80;88.80;;;;;;5115221;28;20050;-73
2024/01/15 00:33:45;;;;;;;14.55;6.43;;;0.80;89.00;;;;;;5115656;28;20102;-73
2024/01/15 00:36:11;;;;;;;9.20;4.90;;;0.80;89.10;;;;;;5114989;28;20406;-73
2024/01/15 00:38:36;;;;;;;11.35;5.00;;;0.80;89.20;;;;;;5114966;28;20019;-72
2024/01/15 00:41:02;;;;;;;12.35;5.47;;;0.80;89.00;;;;;;5113494;28;20164;-73
2024/01/15 00:43:28;;;;;;;12.85;5.80;;;0.80;89.00;;;;;;5114913;28;20333;-72
2024/01/15 00:45:54;;;;;;;10.43;5.28;;;0.80;89.00;;;;;;5114724;28;20032;-73
2024/01/15 00:48:19;;;;;;;12.73;6.32;;;0.80;89.10;;;;;;5109964;28;20483;-73
2024/01/15 00:50:45;;;;;;;10.30;5.70;;;0.80;89.10;;;;;;5094826;28;20028;-73
2024/01/15 00:53:10;;;;;;;10.90;5.75;;;0.90;89.20;;;;;;5094288;28;20047;-73
2024/01/15 00:55:37;;;;;;;12.45;6.28;;;0.90;89.40;;;;;;5094367;28;20073;-74
2024/01/15 00:58:03;;;;;;;13.00;6.00;;;0.80;89.20;;;;;;5094163;28;20031;-73
2024/01/15 01:00:29;;;;;;;13.23;5.72;;;0.90;89.40;;;;;;5093043;28;20078;-73
2024/01/15 01:02:54;;;;;;;11.75;5.63;;;0.90;89.40;;;;;;5094062;28;20441;-72
2024/01/15 01:05:20;;;;;;;13.95;6.75;;;0.90;89.60;;;;;;5094134;28;20036;-74
2024/01/15 01:07:46;;;;;;;14.05;5.68;;;0.80;89.40;;;;;;5093883;28;20039;-73
2024/01/15 01:10:11;;;;;;;15.50;6.85;;;0.80;89.50;;;;;;5093811;28;20067;-73
2024/01/15 01:12:37;;;;;;;10.30;6.10;;;0.90;89.60;;;;;;5094349;28;20465;-73
2024/01/15 01:15:03;;;;;;;13.43;5.60;;;0.80;89.40;;;;;;5092215;28;20020;-73
2024/01/15 01:17:30;;;;;;;12.52;6.75;;;0.90;89.60;;;;;;5093326;28;20039;-74
2024/01/15 01:19:56;;;;;;;13.55;5.78;;;0.90;89.50;;;;;;5093927;28;20024;-73
2024/01/15 01:22:21;;;;;;;12.85;6.65;;;0.90;89.50;;;;;;5093610;28;20029;-73
2024/01/15 01:24:47;;;;;;;12.10;6.65;;;0.90;89.30;;;;;;5093573;28;20032;-73
2024/01/15 01:27:12;;;;;;;12.68;6.30;;;0.90;89.00;;;;;;5093539;28;20139;-73
2024/01/15 01:29:38;;;;;;;12.02;6.30;;;0.90;88.80;;;;;;5093556;28;20103;-72
2024/01/15 01:32:04;;;;;;;11.68;5.88;;;0.90;88.70;;;;;;5093543;28;20073;-73
2024/01/15 01:34:30;;;;;;;12.23;6.32;;;0.90;88.40;;;;;;5093963;28;20056;-73
2024/01/15 01:36:55;;;;;;;12.63;6.35;;;0.90;88.30;;;;;;5093409;28;20031;-74
2024/01/15 01:39:21;;;;;;;11.05;6.20;;;0.90;88.10;;;;;;5092600;28;20468;-73
2024/01/15 01:41:46;;;;;;;9.90;6.03;;;0.90;88.00;;;;;;5093715;28;20027;-73
2024/01/15 01:44:12;;;;;;;16.15;6.05;;;1.00;87.90;;;;;;5093182;28;20024;-73
2024/01/15 01:46:40;;;;;;;11.82;6.03;;;1.00;88.30;;;;;;5093532;28;20032;-73
2024/01/15 01:49:07;;;;;;;10.35;5.55;;;1.00;87.70;;;;;;5092649;28;20020;-73
2024/01/15 01:51:35;;;;;;;12.07;6.03;;;1.00;87.40;;;;;;5093157;28;20024;-73
2024/01/15 01:54:01;;;;;;;11.25;6.03;;;1.00;87.00;;;;;;5092992;28;20076;-73
2024/01/15 01:56:27;;;;;;;11.18;5.82;;;1.00;87.00;;;;;;5093311;28;20032;-73
2024/01/15 01:58:53;;;;;;;11.40;6.65;;;1.00;87.10;;;;;;5093044;28;20080;-72
2024/01/15 02:01:19;;;;;;;11.65;5.88;;;1.00;87.00;;;;;;5092939;28;20107;-73
2024/01/15 02:03:45;;;;;;;12.60;6.20;;;1.00;86.70;;;;;;5093220;28;20062;-72
2024/01/15 02:06:11;;;;;;;11.88;6.18;;;1.00;86.90;;;;;;5109099;28;20407;-72
2024/01/15 02:08:37;;;;;;;11.75;6.50;;;1.00;86.60;;;;;;5113591;28;20028;-72
2024/01/15 02:11:03;;;;;;;14.52;7.78;;;1.10;86.10;;;;;;5113074;28;20124;-72
2024/01/15 02:13:29;;;;;;;12.32;7.47;;;1.10;85.70;;;;;;5113383;28;20032;-73
2024/01/15 02:15:54;;;;;;;12.23;7.30;;;1.00;85.50;;;;;;5113463;28;20031;-73
2024/01/15 02:18:20;;;;;;;14.35;7.57;;;1.00;85.00;;;;;;5112854;28;20027;-72
2024/01/15 02:20:46;;;;;;;13.30;7.43;;;1.00;84.80;;;;;;5113258;28;20027;-72
2024/01/15 02:23:15;;;;;;;15.43;8.45;;;1.00;85.00;;;;;;5112451;28;20035;-73
2024/01/15 02:25:45;;;;;;;14.15;8.63;;;1.00;85.30;;;;;;5112715;28;20024;-72
2024/01/15 02:28:13;;;;;;;15.07;7.32;;;1.00;85.00;;;;;;5112652;28;20024;-73
2024/01/15 02:30:40;;;;;;;16.10;8.20;;;1.00;85.20;;;;;;5110804;28;20024;-72
2024/01/15 02:33:07;;;;;;;15.77;8.48;;;1.00;85.10;;;;;;5112550;28;20039;-73
2024/01/15 02:35:33;;;;;;;15.50;7.60;;;1.00;84.90;;;;;;5112578;28;20032;-73
2024/01/15 02:37:59;;;;;;;12.45;7.22;;;1.00;85.00;;;;;;5112952;28;20105;-73
2024/01/15 02:40:24;;;;;;;13.55;7.25;;;1.00;85.00;;;;;;5112930;28;20027;-73
2024/01/15 02:42:50;;;;;;;13.40;7.40;;;1.00;84.30;;;;;;5096659;28;20391;-73
2024/01/15 02:45:16;;;;;;;15.13;8.25;;;1.10;83.40;;;;;;5089857;28;20024;-73
2024/01/15 02:47:42;;;;;;;20.00;8.60;;;1.10;82.70;;;;;;5091796;28;20140;-73
2024/01/15 02:50:08;;;;;;;15.18;8.23;;;1.20;81.70;;;;;;5090795;28;20489;-73
2024/01/15 02:52:33;;;;;;;16.67;8.25;;;1.30;80.70;;;;;;5091109;28;20103;-73
2024/01/15 02:54:59;;;;;;;19.30;9.10;;;1.40;80.00;;;;;;5092087;28;20425;-74
2024/01/15 02:57:24;;;;;;;20.55;9.15;;;1.40;79.40;;;;;;5091597;28;20412;-73
2024/01/15 02:59:50;;;;;;;16.77;8.75;;;1.50;78.90;;;;;;5091653;28;20500;-73
2024/01/15 03:02:16;;;;;;;17.83;9.13;;;1.50;78.90;;;;;;5090206;28;20123;-73
2024/01/15 03:04:45;;;;;;;15.35;8.68;;;1.50;78.40;;;;;;5092116;28;20032;-72
2024/01/15 03:07:10;;;;;;;17.83;8.70;;;1.60;78.10;;;;;;5091638;28;20051;-73
2024/01/15 03:09:36;;;;;;;13.98;7.90;;;1.60;77.90;;;;;;5092100;28;20019;-73
2024/01/15 03:12:02;;;;;;;16.00;9.20;;;1.60;77.80;;;;;;5091622;28;20476;-72
2024/01/15 03:14:27;;;;;;;18.83;9.50;;;1.60;77.70;;;;;;5090287;28;20108;-73
2024/01/15 03:16:53;;;;;;;17.25;9.15;;;1.70;77.90;;;;;;5092328;28;20035;-73
2024/01/15 03:19:19;;;;;;;18.30;9.55;;;1.70;77.80;;;;;;5091612;28;20116;-72
2024/01/15 03:21:45;;;;;;;17.80;9.52;;;1.70;77.60;;;;;;5092058;28;20035;-72
2024/01/15 03:24:10;;;;;;;16.25;9.18;;;1.70;77.80;;;;;;5090769;28;20090;-72
2024/01/15 03:26:36;;;;;;;16.55;8.75;;;1.70;77.90;;;;;;5091912;28;20058;-72
2024/01/15 03:29:02;;;;;;;16.85;8.95;;;1.70;78.10;;;;;;5090407;28;20131;-72
2024/01/15 03:31:27;;;;;;;20.10;10.40;;;1.70;78.20;;;;;;5091517;28;20024;-72
2024/01/15 03:33:53;;;;;;;15.82;8.93;;;1.70;78.40;;;;;;5091628;28;20032;-72
2024/01/15 03:36:19;;;;;;;16.38;9.38;;;1.70;78.60;;;;;;5091856;28;20373;-73
2024/01/15 03:38:44;;;;;;;16.73;9.15;;;1.80;78.80;;;;;;5091915;28;20077;-73
2024/01/15 03:41:10;;;;;;;17.95;9.88;;;1.80;79.00;;;;;;5092988;28;20032;-74
2024/01/15 03:43:35;;;;;;;16.75;9.60;;;1.80;79.20;;;;;;5096046;28;20054;-73
2024/01/15 03:46:02;;;;;;;16.80;9.90;;;1.90;79.40;;;;;;5094670;28;20472;-73
2024/01/15 03:48:27;;;;;;;18.38;9.73;;;1.90;79.60;;;;;;5095448;28;20048;-73
2024/01/15 03:50:53;;;;;;;20.05;9.77;;;1.90;79.70;;;;;;5095344;28;20055;-72
2024/01/15 03:53:19;;;;;;;19.20;10.02;;;1.90;79.90;;;;;;5095728;28;20121;-72
2024/01/15 03:55:44;;;;;;;19.02;10.43;;;1.90;79.80;;;;;;5095530;28;20024;-73
2024/01/15 03:58:10;;;;;;;21.20;10.27;;;1.90;79.90;;;;;;5110864;28;20114;-73
2024/01/15 04:00:35;;;;;;;19.38;10.30;;;1.90;79.60;;;;;;5115554;28;20043;-74
2024/01/15 04:03:01;;;;;;;21.40;10.40;;;1.80;79.70;;;;;;5116969;28;20051;-79
2024/01/15 04:05:27;;;;;;;19.52;10.50;;;1.80;80.40;;;;;;5115775;28;20564;-72
2024/01/15 04:07:52;;;;;;;19.25;9.85;;;1.80;80.10;;;;;;5114678;28;20046;-80
2024/01/15 04:10:18;;;;;;;23.33;11.75;;;1.80;80.10;;;;;;5115654;28;20028;-72
2024/01/15 04:12:46;;;;;;;22.38;11.43;;;1.80;80.30;;;;;;5116034;28;20171;-73
2024/01/15 04:15:12;;;;;;;19.77;10.30;;;1.80;80.50;;;;;;5115351;28;20027;-74
2024/01/15 04:17:38;;;;;;;17.92;9.80;;;1.70;80.60;;;;;;5115805;28;20037;-72
2024/01/15 04:20:04;;;;;;;21.20;10.15;;;1.80;81.00;;;;;;5114302;28;20498;-73
2024/01/15 04:22:29;;;;;;;21.10;10.23;;;1.80;81.20;;;;;;5111102;28;20028;-74
2024/01/15 04:24:55;;;;;;;17.88;9.45;;;1.80;81.40;;;;;;5101115;28;20017;-73
2024/01/15 04:27:20;;;;;;;17.70;9.60;;;1.80;81.70;;;;;;5103390;28;20468;-73
2024/01/15 04:29:46;;;;;;;17.83;9.43;;;1.90;82.10;;;;;;5104168;28;20035;-73
2024/01/15 04:32:12;;;;;;;17.25;8.52;;;1.90;82.10;;;;;;5107781;28;20027;-74
2024/01/15 04:34:37;;;;;;;17.85;9.35;;;1.90;82.20;;;;;;5107536;28;20039;-72
2024/01/15 04:37:03;;;;;;;16.10;9.57;;;2.00;82.40;;;;;;5110432;28;20395;-72
2024/01/15 04:39:29;;;;;;;16.50;9.00;;;2.00;82.30;;;;;;5114619;28;20198;-72
2024/01/15 04:41:55;;;;;;;17.77;9.35;;;2.00;82.50;;;;;;5115558;28;20035;-73
2024/01/15 04:44:20;;;;;;;13.10;8.40;;;2.00;82.50;;;;;;5114846;28;20051;-72
2024/01/15 04:46:46;;;;;;;18.27;9.52;;;2.00;82.50;;;;;;5114827;28;20396;-72
2024/01/15 04:49:12;;;;;;;20.15;10.50;;;2.00;82.70;;;;;;5114720;28;20032;-73
2024/01/15 04:51:37;;;;;;;21.08;11.02;;;2.00;82.90;;;;;;5113671;28;20030;-72
2024/01/15 04:54:03;;;;;;;19.23;10.57;;;2.00;83.00;;;;;;5105859;28;20099;-72
2024/01/15 04:56:29;;;;;;;19.10;10.23;;;1.90;83.00;;;;;;5093691;28;20039;-72
2024/01/15 04:58:55;;;;;;;24.00;11.60;;;1.90;83.20;;;;;;5093934;28;20401;-72
2024/01/15 05:01:20;;;;;;;20.08;11.18;;;1.80;83.30;;;;;;5094125;28;20055;-72
2024/01/15 05:03:46;;;;;;;19.45;10.75;;;1.80;83.60;;;;;;5094612;28;20024;-72
2024/01/15 05:06:12;;;;;;;20.17;10.52;;;1.80;83.60;;;;;;5093946;28;20070;-78
2024/01/15 05:08:38;;;;;;;20.50;11.40;;;1.70;83.60;;;;;;5094056;28;20048;-73
2024/01/15 05:11:03;;;;;;;20.00;10.13;;;1.60;83.70;;;;;;5094353;28;20028;-73
2024/01/15 05:13:29;;;;;;;22.90;11.55;;;1.60;83.70;;;;;;5093832;28;20031;-73
2024/01/15 05:15:55;;;;;;;18.85;10.68;;;1.60;83.60;;;;;;5094229;28;20051;-73
2024/01/15 05:18:20;;;;;;;22.90;11.88;;;1.50;83.60;;;;;;5093782;28;20468;-73
2024/01/15 05:20:46;;;;;;;21.48;10.93;;;1.50;83.40;;;;;;5093838;28;20100;-73
2024/01/15 05:23:12;;;;;;;20.25;10.35;;;1.50;83.10;;;;;;5094524;28;20028;-72
2024/01/15 05:25:37;;;;;;;19.73;11.13;;;1.40;82.70;;;;;;5093662;28;20116;-72
2024/01/15 05:28:03;;;;;;;20.65;11.32;;;1.40;82.40;;;;;;5093506;28;20064;-72
2024/01/15 05:30:29;;;;;;;18.80;10.45;;;1.40;82.20;;;;;;5093316;28;20057;-73
2024/01/15 05:32:54;;;;;;;20.63;10.82;;;1.40;82.20;;;;;;5094090;28;20027;-73
2024/01/15 05:35:20;;;;;;;19.50;9.90;;;1.40;82.10;;;;;;5092168;28;20418;-73
2024/01/15 05:37:46;;;;;;;18.05;10.45;;;1.40;81.80;;;;;;5093577;28;20031;-73
2024/01/15 05:40:12;;;;;;;19.35;9.82;;;1.40;81.50;;;;;;5093464;28;20032;-73
2024/01/15 05:42:39;;;;;;;19.48;10.05;;;1.40;81.30;;;;;;5091646;28;20031;-74
2024/01/15 05:45:05;;;;;;;17.98;9.82;;;1.40;81.20;;;;;;5092919;28;20028;-72
2024/01/15 05:47:31;;;;;;;19.40;10.25;;;1.40;81.00;;;;;;5092663;28;20040;-73
2024/01/15 05:49:57;;;;;;;17.70;9.75;;;1.40;80.70;;;;;;5093296;28;20052;-71
2024/01/15 05:52:23;;;;;;;18.45;9.65;;;1.40;80.70;;;;;;5089739;28;20023;-73
2024/01/15 05:54:50;;;;;;;21.08;10.27;;;1.40;80.60;;;;;;5092682;28;20031;-74
2024/01/15 05:57:15;;;;;;;20.48;10.05;;;1.40;80.60;;;;;;5093371;28;20032;-73
2024/01/15 05:59:42;;;;;;;18.38;9.25;;;1.40;80.80;;;;;;5092654;28;20181;-73
2024/01/15 06:02:08;;;;;;;17.73;9.13;;;1.40;80.70;;;;;;5092781;28;20032;-73
2024/01/15 06:04:34;;;;;;;18.95;9.73;;;1.40;80.70;;;;;;5092296;28;20035;-73
2024/01/15 06:06:59;;;;;;;15.68;8.60;;;1.40;80.80;;;;;;5092866;28;20039;-73
2024/01/15 06:09:25;;;;;;;12.80;8.05;;;1.40;80.70;;;;;;5092576;28;20039;-74
2024/01/15 06:11:50;;;;;;;14.88;8.18;;;1.50;81.20;;;;;;5092984;28;20492;-74
2024/01/15 06:14:17;;;;;;;17.08;9.02;;;1.50;81.80;;;;;;5092678;28;20048;-79
2024/01/15 06:16:43;;;;;;;15.52;8.25;;;1.50;82.00;;;;;;5093103;28;20032;-75
2024/01/15 06:19:08;;;;;;;15.68;9.30;;;1.50;82.20;;;;;;5091387;28;20032;-73
2024/01/15 06:21:34;;;;;;;15.82;8.60;;;1.50;82.70;;;;;;5090855;28;20028;-73
2024/01/15 06:24:00;;;;;;;17.92;9.15;;;1.50;83.00;;;;;;5092626;28;20023;-73
2024/01/15 06:26:25;;;;;;;17.17;9.20;;;1.50;83.20;;;;;;5092180;28;20457;-73
2024/01/15 06:28:51;;;;;;;17.45;8.98;;;1.50;83.40;;;;;;5092733;28;20031;-74
2024/01/15 06:31:16;;;;;;;18.70;8.98;;;1.40;83.60;;;;;;5092443;28;20024;-74
2024/01/15 06:33:43;;;;;;;18.20;10.30;;;1.40;83.80;;;;;;5091856;28;20020;-74
2024/01/15 06:36:08;;;;;;;15.18;9.30;;;1.40;84.10;;;;;;5092445;28;20028;-73
2024/01/15 06:38:34;;;;;;;20.55;10.05;;;1.40;84.30;;;;;;5091976;28;20028;-73
2024/01/15 06:41:01;;;;;;;18.40;10.38;;;1.30;84.40;;;;;;5092570;28;20146;-73
2024/01/15 06:43:26;;;;;;;18.77;9.75;;;1.30;84.70;;;;;;5091636;28;20738;-74
2024/01/15 06:45:52;;;;;;;18.10;10.18;;;1.30;84.90;;;;;;5092192;28;20043;-73
2024/01/15 06:48:17;;;;;;;17.48;10.00;;;1.30;85.20;;;;;;5092065;28;20024;-73
2024/01/15 06:50:43;;;;;;;18.38;9.15;;;1.30;85.40;;;;;;5091681;28;20036;-73
2024/01/15 06:53:09;;;;;;;18.75;9.15;;;1.20;85.50;;;;;;5092225;28;20032;-74
2024/01/15 06:55:34;;;;;;;17.83;9.48;;;1.20;85.30;;;;;;5091232;28;20032;-74
2024/01/15 06:58:00;;;;;;;21.15;9.85;;;1.20;85.30;;;;;;5091956;28;20028;-72
2024/01/15 07:00:27;;;;;;;17.42;9.38;;;1.20;85.50;;;;;;5091238;28;20085;-74
2024/01/15 07:02:53;;;;;;;18.02;10.18;;;1.20;85.50;;;;;;5092022;28;20032;-72
2024/01/15 07:05:20;;;;;;;17.52;9.07;;;1.30;85.40;;;;;;5091730;28;20107;-73
2024/01/15 07:07:45;;;;;;;14.77;8.50;;;1.20;84.90;;;;;;5091555;28;20047;-73
2024/01/15 07:10:11;;;;;;;15.27;7.88;;;1.20;84.90;;;;;;5092006;28;20401;-73
2024/01/15 07:12:37;;;;;;;14.65;8.48;;;1.20;84.90;;;;;;5091168;28;20050;-73
2024/01/15 07:15:04;;;;;;;16.48;8.15;;;1.20;84.70;;;;;;5091022;28;20035;-72
2024/01/15 07:17:30;;;;;;;15.60;8.43;;;1.20;84.50;;;;;;5090615;28;20051;-75
2024/01/15 07:19:56;;;;;;;12.95;7.95;;;1.20;84.40;;;;;;5096232;28;20040;-74
2024/01/15 07:22:22;;;;;;;13.73;7.75;;;1.30;84.20;;;;;;5104866;28;20030;-78
2024/01/15 07:24:47;;;;;;;14.95;8.38;;;1.30;83.80;;;;;;5102585;28;20039;-72
2024/01/15 07:27:13;;;;;;;15.15;8.13;;;1.30;83.50;;;;;;5103861;28;20428;-73
2024/01/15 07:29:38;;;;;;;12.30;6.88;;;1.30;83.30;;;;;;5101438;28;20032;-74
2024/01/15 07:32:05;;;;;;;14.80;8.23;;;1.40;83.20;;;;;;5104410;28;20024;-74
2024/01/15 07:34:31;;;;;;;18.33;8.35;;;1.40;83.10;;;;;;5111463;28;20126;-75
2024/01/15 07:36:57;;;;;;;16.42;8.68;;;1.40;82.80;;;;;;5111890;28;20375;-74
2024/01/15 07:39:24;;;;;;;12.13;7.22;;;1.40;82.60;;;;;;5111775;28;20107;-78
2024/01/15 07:41:50;;;;;;;13.73;7.28;;;1.50;82.50;;;;;;5111874;28;20024;-75
2024/01/15 07:44:16;;;;;;;15.30;8.40;;;1.50;82.10;;;;;;5111519;28;20557;-74
2024/01/15 07:46:45;;;;;;;15.27;7.95;;;1.50;82.00;;;;;;5111019;28;20511;-76
2024/01/15 07:49:11;;;;;;;14.45;7.95;;;1.60;81.90;;;;;;5112066;28;20050;-74
2024/01/15 07:51:37;;;;;;;11.57;6.93;;;1.60;81.70;;;;;;5108010;28;20034;-74
2024/01/15 07:54:03;;;;;;;16.55;7.65;;;1.60;81.60;;;;;;5111806;28;20028;-74
2024/01/15 07:56:29;;;;;;;13.63;7.50;;;1.70;81.50;;;;;;5111442;28;20106;-74
2024/01/15 07:58:56;;;;;;;12.05;6.93;;;1.70;81.30;;;;;;5109433;28;20121;-74
2024/01/15 08:01:21;;;;;;;13.80;7.75;;;1.70;81.20;;;;;;5091010;28;20103;-75
2024/01/15 08:03:47;;;;;;;12.38;6.97;;;1.80;81.30;;;;;;5091163;28;20521;-74
2024/01/15 08:06:13;;;;;;;13.35;7.55;;;1.80;81.30;;;;;;5090133;28;20322;-74
2024/01/15 08:08:39;;;;;;;14.48;7.30;;;1.80;81.30;;;;;;5090868;28;20040;-74
2024/01/15 08:11:05;;;;;;;14.70;7.55;;;1.90;81.30;;;;;;5089871;28;20028;-74
2024/01/15 08:13:30;;;;;;;13.18;7.30;;;1.90;81.20;;;;;;5090976;28;20115;-74
2024/01/15 08:15:56;;;;;;;12.70;7.38;;;1.90;81.00;;;;;;5091225;28;20464;-74
2024/01/15 08:18:22;;;;;;;12.05;6.72;;;1.90;81.10;;;;;;5090194;28;20052;-75
2024/01/15 08:20:48;;;;;;;14.82;7.75;;;2.00;81.20;;;;;;5090891;28;20024;-75
2024/01/15 08:23:13;;;;;;;12.98;7.57;;;2.00;81.10;;;;;;5091487;28;20021;-74
2024/01/15 08:25:39;;;;;;;15.05;7.15;;;2.00;81.20;;;;;;5090711;28;20421;-74
2024/01/15 08:28:05;;;;;;;13.80;6.68;;;2.00;81.20;;;;;;5093843;28;20093;-74
2024/01/15 08:30:30;;;;;;;13.52;7.82;;;2.00;80.90;;;;;;5094450;28;20036;-74
2024/01/15 08:32:57;;;;;;;11.82;6.50;;;2.00;80.80;;;;;;5093288;28;20540;-75
2024/01/15 08:35:22;;;;;;;14.68;7.25;;;2.00;80.80;;;;;;5094346;28;20024;-75
2024/01/15 08:37:54;;;;;;;14.95;7.18;;;2.00;80.80;;;;;;5092859;28;20116;-73
2024/01/15 08:40:20;;;;;;;13.55;6.80;;;2.10;80.70;;;;;;5094367;28;20020;-74
2024/01/15 08:42:47;;;;;;;12.50;6.53;;;2.10;80.70;;;;;;5092637;28;20401;-74
2024/01/15 08:45:13;;;;;;;10.45;6.00;;;2.20;80.50;;;;;;5094048;28;20427;-74
2024/01/15 08:47:39;;;;;;;10.43;6.40;;;2.20;80.10;;;;;;5093635;28;20538;-74
2024/01/15 08:50:05;;;;;;;13.30;6.35;;;2.30;80.00;;;;;;5094656;28;20032;-73
2024/01/15 08:52:31;;;;;;;10.23;6.43;;;2.30;79.70;;;;;;5092339;28;20119;-75
2024/01/15 08:54:57;;;;;;;14.93;6.78;;;2.40;79.60;;;;;;5094137;28;20465;-74
2024/01/15 08:57:23;;;;;;;12.75;6.10;;;2.40;79.40;;;;;;5094232;28;20035;-74
2024/01/15 08:59:48;;;;;;;11.77;5.93;;;2.50;79.40;;;;;;5093275;28;20480;-74
2024/01/15 09:02:14;;;;;;;11.80;5.72;;;2.60;78.70;;;;;;5094051;28;20028;-74
2024/01/15 09:04:41;;;;;;;10.73;6.13;;;2.60;78.20;;;;;;5092051;28;20025;-74
2024/01/15 09:07:07;;;;;;;8.40;5.25;;;2.70;77.90;;;;;;5094003;28;20441;-74
2024/01/15 09:09:34;;;;;;;11.00;6.35;;;2.70;77.70;;;;;;5093381;28;20032;-74
2024/01/15 09:12:00;;;;;;;9.20;5.47;;;2.70;78.00;;;;;;5092631;28;20080;-74
2024/01/15 09:14:26;;;;;;;10.95;5.85;;;2.70;78.40;;;;;;5093898;28;20032;-74
2024/01/15 09:16:53;;;;;;;9.13;5.85;;;2.70;78.10;;;;;;5093688;28;20354;-74
2024/01/15 09:19:19;;;;;;;9.80;5.10;;;2.70;78.10;;;;;;5093832;28;20028;-74
2024/01/15 09:21:45;;;;;;;10.63;5.55;;;2.70;78.00;;;;;;5093934;28;20081;-75
2024/01/15 09:24:11;;;;;;;9.02;5.25;;;2.70;78.10;;;;;;5093850;28;20507;-74
2024/01/15 09:26:36;;;;;;;10.85;5.57;;;2.70;78.30;;;;;;5093402;28;20051;-74
2024/01/15 09:29:02;;;;;;;11.50;5.32;;;2.60;78.50;;;;;;5093781;28;20032;-74
2024/01/15 09:31:28;;;;;;;8.25;5.43;;;2.60;78.50;;;;;;5092564;28;20460;-75
2024/01/15 09:33:58;;;;;;;9.13;5.57;;;2.60;78.60;;;;;;5093725;28;20024;-74
2024/01/15 09:36:24;;;;;;;12.80;5.10;;;2.60;78.70;;;;;;5092443;28;20028;-73
2024/01/15 09:38:49;;;;;;;11.32;5.65;;;2.60;79.10;;;;;;5091327;28;20081;-74
2024/01/15 09:41:15;;;;;;;10.40;6.07;;;2.50;79.30;;;;;;5093916;28;20115;-74
2024/01/15 09:43:42;;;;;;;11.40;5.15;;;2.60;79.40;;;;;;5093223;28;20039;-74
2024/01/15 09:46:08;;;;;;;8.35;5.07;;;2.60;79.60;;;;;;5093428;28;20035;-74
2024/01/15 09:48:34;;;;;;;11.55;6.05;;;2.50;79.70;;;;;;5093089;28;20028;-74
2024/01/15 09:51:01;;;;;;;12.48;5.72;;;2.60;80.00;;;;;;5093156;28;20031;-74
2024/01/15 09:53:27;;;;;;;12.57;5.82;;;2.60;79.80;;;;;;5092064;28;20135;-74
2024/01/15 09:55:53;;;;;;;7.60;4.85;;;2.70;79.90;;;;;;5091606;28;20504;-74
2024/01/15 09:58:19;;;;;;;11.40;5.05;;;2.70;80.00;;;;;;5094104;28;20063;-74
2024/01/15 10:00:47;;;;;;;8.90;5.55;;;2.70;79.90;;;;;;5111633;28;20047;-74
2024/01/15 10:03:13;;;;;;;9.13;5.55;;;2.70;80.00;;;;;;5113286;28;20495;-74
2024/01/15 10:05:39;;;;;;;8.73;4.97;;;2.80;79.90;;;;;;5112879;28;20028;-74
2024/01/15 10:08:06;;;;;;;11.35;5.53;;;2.80;79.80;;;;;;5113440;28;20464;-74
2024/01/15 10:10:31;;;;;;;9.80;5.78;;;2.90;80.10;;;;;;5113180;28;20038;-78
2024/01/15 10:12:59;;;;;;;8.45;4.65;;;2.90;80.20;;;;;;5113408;28;20027;-74
2024/01/15 10:15:28;;;;;;;9.93;5.10;;;3.00;80.20;;;;;;5113379;28;20098;-74
2024/01/15 10:17:54;;;;;;;10.30;5.47;;;3.00;80.20;;;;;;5112757;28;20396;-74
2024/01/15 10:20:22;;;;;;;9.00;5.03;;;3.10;80.10;;;;;;5113319;28;20020;-73
2024/01/15 10:22:49;;;;;;;9.55;5.15;;;3.10;80.00;;;;;;5112769;28;20042;-73
2024/01/15 10:25:16;;;;;;;9.75;4.97;;;3.10;79.90;;;;;;5113126;28;20031;-74
2024/01/15 10:27:42;;;;;;;8.38;5.18;;;3.10;79.90;;;;;;5111286;28;20080;-75
2024/01/15 10:30:09;;;;;;;10.20;5.07;;;3.10;79.90;;;;;;5113137;28;20118;-74
2024/01/15 10:32:34;;;;;;;9.38;5.13;;;3.10;80.10;;;;;;5112731;28;20098;-74
2024/01/15 10:35:00;;;;;;;7.35;4.82;;;3.10;79.40;;;;;;5111584;28;20104;-75
2024/01/15 10:37:27;;;;;;;8.60;4.13;;;3.20;79.00;;;;;;5092683;28;20067;-74
2024/01/15 10:39:52;;;;;;;6.50;4.28;;;3.10;78.70;;;;;;5092361;28;20027;-74
2024/01/15 10:42:18;;;;;;;6.18;3.90;;;3.10;78.80;;;;;;5091310;28;20028;-75
2024/01/15 10:44:47;;;;;;;5.95;4.07;;;3.10;78.40;;;;;;5092137;28;20020;-75
2024/01/15 10:47:13;;;;;;;10.00;4.88;;;3.20;78.50;;;;;;5092446;28;20032;-74
2024/01/15 10:49:39;;;;;;;8.48;4.00;;;3.20;78.70;;;;;;5091713;28;20020;-75
2024/01/15 10:52:05;;;;;;;8.85;4.30;;;3.20;78.70;;;;;;5091918;28;20492;-75
2024/01/15 10:54:32;;;;;;;8.80;4.05;;;3.30;78.60;;;;;;5092264;28;20035;-74
2024/01/15 10:56:57;;;;;;;8.15;4.45;;;3.30;78.50;;;;;;5092244;28;20032;-74
2024/01/15 10:59:23;;;;;;;7.80;4.03;;;3.40;77.90;;;;;;5090709;28;20048;-74
2024/01/15 11:01:53;;;;;;;7.90;4.07;;;3.40;77.60;;;;;;5091602;28;20046;-75
2024/01/15 11:04:19;;;;;;;6.93;3.90;;;3.50;77.20;;;;;;5092511;28;20020;-75
2024/01/15 11:06:49;;;;;;;6.70;4.25;;;3.50;76.70;;;;;;5091455;28;20035;-74
2024/01/15 11:09:17;;;;;;;7.90;4.45;;;3.60;76.80;;;;;;5092277;28;20020;-74
2024/01/15 11:11:47;;;;;;;10.02;3.97;;;3.60;76.80;;;;;;5091823;28;20024;-75
2024/01/15 11:14:40;;;;;;;5.00;3.22;;;3.70;76.40;;;;;;5091819;28;20056;-75
2024/01/15 11:17:06;;;;;;;6.07;4.00;;;3.80;76.10;;;;;;5088513;28;20485;-75
2024/01/15 11:19:45;;;;;;;7.53;4.15;;;3.80;76.00;;;;;;5090767;28;20028;-75
2024/01/15 11:22:30;;;;;;;7.60;3.58;;;3.80;76.30;;;;;;5092152;28;20036;-75
2024/01/15 11:25:18;;;;;;;9.88;4.20;;;3.80;76.00;;;;;;5089714;28;20031;-74
2024/01/15 11:27:44;;;;;;;8.20;4.28;;;3.70;76.60;;;;;;5091488;28;20059;-76
2024/01/15 11:30:12;;;;;;;9.52;4.13;;;3.70;76.00;;;;;;5091934;28;20089;-75
2024/01/15 11:32:41;;;;;;;6.80;4.30;;;3.60;76.80;;;;;;5091844;28;20024;-75
2024/01/15 11:35:08;;;;;;;9.63;4.53;;;3.60;77.30;;;;;;5091986;28;20028;-74
2024/01/15 11:37:54;;;;;;;8.38;3.92;;;3.60;76.90;;;;;;5091723;28;20452;-75
2024/01/15 11:40:21;;;;;;;7.07;3.75;;;3.60;76.70;;;;;;5091926;28;20058;-75
2024/01/15 11:42:48;;;;;;;5.18;3.58;;;3.70;77.20;;;;;;5089840;28;20441;-75
2024/01/15 11:45:23;;;;;;;8.68;4.30;;;3.80;77.50;;;;;;5090420;28;20028;-75
2024/01/15 11:48:12;;;;;;;6.22;3.75;;;3.90;76.70;;;;;;5091223;28;20032;-76
2024/01/15 11:50:41;;;;;;;5.93;3.88;;;4.00;76.30;;;;;;5091694;28;20111;-75
2024/01/15 11:53:33;;;;;;;6.40;3.60;;;4.10;76.30;;;;;;5091720;28;20020;-76
2024/01/15 11:56:02;;;;;;;6.35;3.90;;;4.10;76.70;;;;;;5096715;28;20031;-76
2024/01/15 11:58:28;;;;;;;5.32;3.70;;;4.20;76.80;;;;;;5111750;28;20024;-76
2024/01/15 12:00:54;;;;;;;7.25;3.65;;;4.20;76.50;;;;;;5111535;28;20039;-76
2024/01/15 12:03:24;;;;;;;7.38;3.95;;;4.30;75.90;;;;;;5115545;28;20326;-76
2024/01/15 12:05:51;;;;;;;8.88;4.22;;;4.30;76.30;;;;;;5115658;28;20024;-76
2024/01/15 12:08:24;;;;;;;5.40;3.70;;;4.30;76.40;;;;;;5115857;28;20405;-76
2024/01/15 12:10:50;;;;;;;6.90;3.60;;;4.30;76.20;;;;;;5115472;28;20302;-76
2024/01/15 12:13:17;;;;;;;10.35;4.18;;;4.30;76.60;;;;;;5115844;28;20049;-76
2024/01/15 12:15:44;;;;;;;6.43;3.47;;;4.30;76.90;;;;;;5114037;28;20076;-76
2024/01/15 12:18:11;;;;;;;7.40;3.75;;;4.30;77.20;;;;;;5116088;28;20114;-76
2024/01/15 12:20:36;;;;;;;8.73;3.78;;;4.30;76.90;;;;;;5115733;28;20034;-75
2024/01/15 12:23:03;;;;;;;5.45;3.38;;;4.30;76.40;;;;;;5115367;28;20020;-76
2024/01/15 12:25:33;;;;;;;6.18;3.95;;;4.30;76.90;;;;;;5115755;28;20053;-75
2024/01/15 12:28:00;;;;;;;6.07;4.03;;;4.30;77.20;;;;;;5115263;28;20032;-75
2024/01/15 12:30:27;;;;;;;7.70;3.33;;;4.30;76.90;;;;;;5115249;28;20035;-75
2024/01/15 12:32:53;;;;;;;5.13;3.60;;;4.30;77.10;;;;;;5114970;28;20016;-75
2024/01/15 12:35:19;;;;;;;5.82;3.67;;;4.30;77.00;;;;;;5110772;28;20157;-75
2024/01/15 12:37:46;;;;;;;7.68;3.90;;;4.30;77.50;;;;;;5094689;28;20456;-76
2024/01/15 12:40:12;;;;;;;6.32;3.78;;;4.30;77.30;;;;;;5094975;28;20039;-76
2024/01/15 12:42:40;;;;;;;5.07;3.63;;;4.30;77.20;;;;;;5094466;28;20472;-75
2024/01/15 12:45:06;;;;;;;7.28;3.60;;;4.30;76.70;;;;;;5094402;28;20113;-76